Time;durP1;ratioP1;P1;durP2;ratioP2;P2;SDS_P1;SDS_P2;PMS_P1;PMS_P2;Temp;Humidity;BMP_temperature;BMP_pressure;BME280_temperature;BME280_humidity;BME280_pressure;Samples;Min_cycle;Max_cycle;Signal;HPM_P1;HPM_P2
2023/01/06 00:00:09;;;;;;;12.10;9.30;;;;;;;4.93;100.00;97140.60;108083;1264;69703;-64
2023/01/06 00:02:57;;;;;;;12.80;9.50;;;;;;;4.94;100.00;97150.73;108029;1264;70855;-64
2023/01/06 00:05:28;;;;;;;15.00;9.70;;;;;;;4.95;100.00;97152.56;108072;1255;69825;-64
2023/01/06 00:07:57;;;;;;;14.20;9.90;;;;;;;4.98;100.00;97153.64;108080;1260;58958;-64
2023/01/06 00:10:26;;;;;;;12.00;9.30;;;;;;;4.98;100.00;97159.81;108090;1264;58883;-64
2023/01/06 00:12:56;;;;;;;11.70;9.10;;;;;;;5.00;100.00;97161.31;108091;1259;70008;-64
2023/01/06 00:15:25;;;;;;;12.80;9.00;;;;;;;5.00;100.00;97163.53;108053;1260;68550;-64
2023/01/06 00:17:54;;;;;;;11.00;8.10;;;;;;;5.00;100.00;97168.03;108039;1264;69866;-64
2023/01/06 00:20:23;;;;;;;12.00;8.70;;;;;;;5.01;100.00;97170.36;107996;1262;59024;-64
2023/01/06 00:22:53;;;;;;;13.30;9.40;;;;;;;5.02;100.00;97172.41;108014;1263;58903;-64
2023/01/06 00:25:23;;;;;;;12.20;9.00;;;;;;;5.01;100.00;97174.86;108040;1256;70543;-64
2023/01/06 00:27:52;;;;;;;;;;;;;;;5.02;100.00;97176.73;108105;1257;69736;-64
2023/01/06 00:30:22;;;;;;;12.40;8.70;;;;;;;5.04;100.00;97181.98;107978;1262;69679;-63
2023/01/06 00:32:50;;;;;;;12.60;8.50;;;;;;;5.03;100.00;97183.04;107972;1264;58950;-63
2023/01/06 00:35:19;;;;;;;10.50;8.20;;;;;;;5.00;100.00;97190.81;108045;1264;58845;-63
2023/01/06 00:37:48;;;;;;;13.20;9.90;;;;;;;5.01;100.00;97196.77;108105;1260;70549;-64
2023/01/06 00:40:17;;;;;;;11.90;9.00;;;;;;;5.00;100.00;97204.27;107856;1263;69201;-64
2023/01/06 00:42:46;;;;;;;11.70;7.50;;;;;;;5.03;100.00;97206.21;107808;1267;69911;-63
2023/01/06 00:45:15;;;;;;;9.80;7.20;;;;;;;5.07;100.00;97208.23;107976;1263;58953;-64
2023/01/06 00:47:44;;;;;;;8.60;5.80;;;;;;;5.12;100.00;97204.20;108057;1266;58862;-64
2023/01/06 00:50:13;;;;;;;9.90;6.50;;;;;;;5.18;100.00;97213.19;108025;1265;69564;-64
2023/01/06 00:52:43;;;;;;;14.40;6.40;;;;;;;5.22;100.00;97217.79;108052;1267;68531;-64
2023/01/06 00:55:12;;;;;;;7.40;5.90;;;;;;;5.26;100.00;97228.61;107899;1265;70143;-64
2023/01/06 00:57:42;;;;;;;7.90;6.00;;;;;;;5.26;100.00;97230.70;108032;1256;58918;-64
2023/01/06 01:00:13;;;;;;;7.00;5.70;;;;;;;5.30;99.81;97231.84;108072;1263;58896;-64
2023/01/06 01:02:43;;;;;;;8.30;5.40;;;;;;;5.32;99.75;97236.40;107758;1267;70598;-65
2023/01/06 01:05:12;;;;;;;8.00;5.70;;;;;;;5.46;97.09;97239.63;108089;1264;69389;-66
2023/01/06 01:07:43;;;;;;;8.10;6.20;;;;;;;5.45;98.60;97239.83;108084;1264;69947;-66
2023/01/06 01:10:12;;;;;;;7.00;5.50;;;;;;;5.45;98.52;97245.40;107978;1263;58890;-66
2023/01/06 01:12:42;;;;;;;9.70;5.30;;;;;;;5.45;98.27;97243.48;108029;1263;58842;-66
2023/01/06 01:15:12;;;;;;;;;;;;;;;5.48;97.17;97245.05;108022;1260;70177;-67
2023/01/06 01:17:42;;;;;;;7.10;5.10;;;;;;;5.51;97.23;97245.08;108039;1264;68350;-66
2023/01/06 01:20:11;;;;;;;7.60;4.90;;;;;;;5.51;97.77;97241.96;108011;1264;69314;-66
2023/01/06 01:22:41;;;;;;;6.00;4.60;;;;;;;5.46;98.20;97244.62;108016;1263;58948;-64
2023/01/06 01:25:10;;;;;;;5.20;3.60;;;;;;;5.54;95.89;97244.38;108123;1264;58893;-66
2023/01/06 01:27:40;;;;;;;8.40;4.40;;;;;;;5.60;95.70;97246.63;108011;1266;71213;-66
2023/01/06 01:30:09;;;;;;;7.60;3.90;;;;;;;5.67;94.64;97245.21;107983;1265;69598;-65
2023/01/06 01:32:38;;;;;;;5.00;3.40;;;;;;;5.75;94.02;97243.73;107975;1263;69118;-65
2023/01/06 01:35:09;;;;;;;4.80;3.60;;;;;;;5.80;93.50;97252.95;108052;1263;58888;-66
2023/01/06 01:37:39;;;;;;;5.00;3.40;;;;;;;5.81;94.69;97251.52;108064;1265;58913;-65
2023/01/06 01:40:09;;;;;;;6.30;3.60;;;;;;;5.81;94.16;97250.83;108064;1264;71028;-65
2023/01/06 01:42:38;;;;;;;5.40;3.20;;;;;;;5.81;94.17;97254.09;108107;1260;69792;-65
2023/01/06 01:45:23;;;;;;;4.60;3.60;;;;;;;5.79;94.27;97255.61;108061;1260;69307;-66
2023/01/06 01:48:14;;;;;;;5.20;3.50;;;;;;;5.74;93.64;97260.36;108089;1260;58891;-66
2023/01/06 01:50:50;;;;;;;6.20;3.90;;;;;;;5.71;93.38;97265.75;108040;1264;58893;-66
2023/01/06 01:53:25;;;;;;;4.80;3.20;;;;;;;5.66;94.23;97264.42;108003;1254;70387;-65
2023/01/06 01:55:57;;;;;;;3.70;3.20;;;;;;;5.62;94.20;97267.08;108101;1260;69250;-66
2023/01/06 01:58:33;;;;;;;4.10;3.30;;;;;;;5.61;94.74;97268.83;108167;1261;69219;-66
2023/01/06 02:01:06;;;;;;;5.60;3.60;;;;;;;5.60;94.97;97270.48;108110;1264;58912;-66
2023/01/06 02:03:39;;;;;;;5.60;4.20;;;;;;;5.57;95.22;97272.38;107999;1264;58940;-66
2023/01/06 02:06:17;;;;;;;5.60;3.80;;;;;;;5.57;95.25;97275.30;108133;1254;70501;-65
2023/01/06 02:09:08;;;;;;;5.10;3.80;;;;;;;5.54;95.60;97281.00;108051;1264;69857;-66
2023/01/06 02:11:39;;;;;;;5.10;3.50;;;;;;;5.54;95.55;97279.63;108010;1261;69394;-66
2023/01/06 02:14:15;;;;;;;4.80;4.30;;;;;;;5.53;95.78;97278.84;108065;1264;58963;-67
2023/01/06 02:17:11;;;;;;;5.60;3.50;;;;;;;5.52;95.81;97285.28;108051;1262;58820;-67
2023/01/06 02:20:11;;;;;;;4.90;4.30;;;;;;;5.49;95.91;97292.01;108096;1264;71160;-66
2023/01/06 02:22:54;;;;;;;4.10;3.40;;;;;;;5.49;95.78;97296.48;108101;1259;69559;-66
2023/01/06 02:25:52;;;;;;;5.20;4.10;;;;;;;5.50;95.50;97297.16;108021;1267;69116;-65
2023/01/06 02:28:52;;;;;;;6.80;4.30;;;;;;;5.48;95.14;97307.44;108089;1262;58952;-66
2023/01/06 02:31:51;;;;;;;5.40;3.80;;;;;;;5.50;95.50;97308.56;108052;1264;58888;-66
2023/01/06 02:34:29;;;;;;;6.90;4.40;;;;;;;5.46;95.54;97317.40;108079;1260;70590;-66
2023/01/06 02:36:59;;;;;;;4.30;3.50;;;;;;;5.47;95.49;97317.71;108052;1263;68059;-66
2023/01/06 02:39:39;;;;;;;;;;;;;;;5.45;95.47;97317.98;108071;1260;68459;-66
2023/01/06 02:42:27;;;;;;;4.00;3.30;;;;;;;5.41;95.61;97317.35;108056;1264;58913;-66
2023/01/06 02:45:19;;;;;;;4.60;3.50;;;;;;;5.35;95.70;97312.99;107668;1264;566082;-65
2023/01/06 02:48:03;;;;;;;5.30;4.00;;;;;;;5.28;96.07;97314.21;108126;1264;70574;-66
2023/01/06 02:50:45;;;;;;;6.20;4.10;;;;;;;5.22;96.55;97309.21;108067;1263;69240;-66
2023/01/06 02:53:30;;;;;;;5.70;4.10;;;;;;;5.16;96.67;97310.69;108047;1263;68483;-66
2023/01/06 02:56:01;;;;;;;5.10;3.90;;;;;;;5.19;95.77;97313.67;108115;1264;58936;-66
2023/01/06 02:59:06;;;;;;;8.10;3.60;;;;;;;5.21;95.52;97309.55;108011;1264;58935;-66
2023/01/06 03:01:44;;;;;;;6.00;3.50;;;;;;;5.22;95.58;97319.20;108076;1260;71496;-66
2023/01/06 03:04:26;;;;;;;7.20;4.30;;;;;;;5.21;95.77;97317.17;108038;1260;68525;-65
2023/01/06 03:07:02;;;;;;;7.00;4.30;;;;;;;5.21;95.95;97320.13;108042;1255;69276;-65
2023/01/06 03:09:37;;;;;;;6.70;3.80;;;;;;;5.24;95.51;97318.05;108026;1264;58971;-65
2023/01/06 03:12:40;;;;;;;5.60;3.90;;;;;;;5.27;96.20;97318.42;108097;1254;58887;-64
2023/01/06 03:15:11;;;;;;;4.90;3.40;;;;;;;5.25;96.38;97319.04;108001;1264;69384;-66
2023/01/06 03:17:41;;;;;;;5.80;3.50;;;;;;;5.23;95.85;97318.65;108085;1259;69058;-65
2023/01/06 03:20:13;;;;;;;5.70;3.80;;;;;;;5.25;95.53;97321.09;108084;1264;69033;-66
2023/01/06 03:22:43;;;;;;;6.20;4.10;;;;;;;5.23;95.64;97325.56;108054;1264;58903;-66
2023/01/06 03:25:14;;;;;;;5.10;3.70;;;;;;;5.21;95.99;97321.66;108059;1260;58866;-65
2023/01/06 03:27:44;;;;;;;5.40;3.80;;;;;;;5.19;95.82;97330.94;108051;1264;70641;-66
2023/01/06 03:30:14;;;;;;;4.90;4.30;;;;;;;5.17;95.80;97330.20;108049;1254;69155;-65
2023/01/06 03:32:46;;;;;;;;;;;;;;;5.17;95.63;97332.10;108018;1264;68561;-65
2023/01/06 03:35:27;;;;;;;6.40;3.90;;;;;;;5.15;95.81;97338.06;108024;1267;58953;-66
2023/01/06 03:38:07;;;;;;;5.20;3.20;;;;;;;5.14;95.94;97341.07;107988;1267;58964;-66
2023/01/06 03:40:40;;;;;;;5.00;3.70;;;;;;;5.09;95.91;97340.79;107991;1258;69627;-66
2023/01/06 03:43:20;;;;;;;6.80;3.90;;;;;;;5.06;96.02;97343.66;107990;1267;69827;-66
2023/01/06 03:46:04;;;;;;;4.60;3.90;;;;;;;5.07;96.18;97343.47;108085;1257;69896;-66
2023/01/06 03:49:03;;;;;;;5.90;3.40;;;;;;;5.02;96.63;97348.73;108117;1260;58986;-66
2023/01/06 03:51:34;;;;;;;8.10;3.60;;;;;;;5.04;96.31;97349.32;107996;1264;59020;-66
2023/01/06 03:54:26;;;;;;;4.90;3.80;;;;;;;5.03;96.30;97352.66;108056;1264;69816;-66
2023/01/06 03:57:08;;;;;;;4.80;3.90;;;;;;;5.04;95.73;97351.06;108062;1263;69146;-66
2023/01/06 03:59:49;;;;;;;4.30;3.80;;;;;;;5.03;95.95;97354.38;108142;1264;69827;-66
2023/01/06 04:02:20;;;;;;;6.30;4.00;;;;;;;4.98;95.99;97361.55;108086;1260;58987;-66
2023/01/06 04:05:19;;;;;;;6.60;3.70;;;;;;;4.97;96.10;97363.70;108079;1264;58888;-66
2023/01/06 04:07:48;;;;;;;8.00;4.20;;;;;;;4.87;96.41;97366.10;107995;1264;69737;-66
2023/01/06 04:10:19;;;;;;;6.50;3.90;;;;;;;4.85;96.30;97370.87;108079;1256;69437;-66
2023/01/06 04:12:50;;;;;;;6.50;3.60;;;;;;;4.82;96.14;97363.77;107997;1261;68277;-65
2023/01/06 04:15:28;;;;;;;4.50;4.00;;;;;;;4.78;96.18;97363.96;108086;1264;58891;-66
2023/01/06 04:17:58;;;;;;;5.60;4.00;;;;;;;4.79;95.71;97373.91;108038;1264;58959;-65
2023/01/06 04:20:31;;;;;;;6.10;3.80;;;;;;;4.80;95.71;97379.59;108122;1261;69434;-66
2023/01/06 04:23:13;;;;;;;7.00;4.10;;;;;;;4.83;95.28;97385.62;108088;1264;68239;-66
2023/01/06 04:25:44;;;;;;;5.00;4.00;;;;;;;4.82;95.37;97391.05;108094;1264;69888;-66
2023/01/06 04:28:22;;;;;;;4.60;3.80;;;;;;;4.86;94.99;97392.40;108049;1264;58956;-66
2023/01/06 04:30:56;;;;;;;7.80;3.90;;;;;;;4.85;95.19;97392.62;108019;1257;58900;-66
2023/01/06 04:33:26;;;;;;;5.80;3.60;;;;;;;4.84;95.21;97394.24;108034;1265;69757;-66
2023/01/06 04:36:00;;;;;;;7.10;4.00;;;;;;;4.85;94.80;97396.08;108085;1257;69246;-66
2023/01/06 04:38:29;;;;;;;;;;;;;;;4.85;94.80;97406.78;108099;1264;69733;-66
2023/01/06 04:40:59;;;;;;;6.20;4.10;;;;;;;4.83;94.78;97410.52;108036;1263;58951;-67
2023/01/06 04:43:29;;;;;;;5.60;4.00;;;;;;;4.84;94.56;97415.81;108070;1260;58865;-66
2023/01/06 04:45:58;;;;;;;4.80;3.70;;;;;;;4.83;94.74;97421.71;108049;1264;70417;-66
2023/01/06 04:48:28;;;;;;;4.40;3.30;;;;;;;4.82;94.90;97419.54;108088;1264;68383;-66
2023/01/06 04:51:06;;;;;;;4.00;3.10;;;;;;;4.81;94.66;97428.40;108082;1264;68486;-67
2023/01/06 04:53:38;;;;;;;4.40;3.60;;;;;;;4.79;94.41;97436.07;108088;1264;58962;-66
2023/01/06 04:56:10;;;;;;;5.30;3.60;;;;;;;4.78;93.93;97436.65;108067;1260;58881;-66
2023/01/06 04:58:39;;;;;;;5.40;3.00;;;;;;;4.79;93.61;97436.60;108176;1254;70588;-66
2023/01/06 05:01:11;;;;;;;4.30;3.60;;;;;;;4.79;94.06;97435.38;108085;1264;69802;-66
2023/01/06 05:03:40;;;;;;;4.40;3.30;;;;;;;4.78;93.82;97436.15;108106;1264;69908;-66
2023/01/06 05:06:11;;;;;;;6.20;3.70;;;;;;;4.78;93.59;97448.06;108124;1264;58894;-66
2023/01/06 05:08:40;;;;;;;;;;;;;;;4.77;93.38;97457.94;108180;1259;58890;-66
2023/01/06 05:11:15;;;;;;;5.70;3.60;;;;;;;4.76;93.17;97461.08;108067;1264;70557;-66
2023/01/06 05:13:45;;;;;;;5.70;4.00;;;;;;;4.77;93.53;97465.73;108089;1264;69821;-66
2023/01/06 05:16:15;;;;;;;5.40;3.40;;;;;;;4.77;93.40;97475.91;108062;1264;69342;-67
2023/01/06 05:18:45;;;;;;;6.80;3.30;;;;;;;4.76;93.46;97482.32;108100;1254;58954;-65
2023/01/06 05:21:15;;;;;;;6.60;3.90;;;;;;;4.77;92.27;97475.71;108094;1260;58896;-65
2023/01/06 05:23:44;;;;;;;5.20;3.30;;;;;;;4.79;93.07;97485.82;108037;1264;71254;-65
2023/01/06 05:26:18;;;;;;;3.60;3.10;;;;;;;4.80;91.45;97487.83;108116;1260;67388;-66
2023/01/06 05:28:49;;;;;;;6.10;3.50;;;;;;;4.81;91.35;97492.45;108045;1267;69658;-66
2023/01/06 05:31:18;;;;;;;5.30;3.40;;;;;;;4.83;90.41;97503.24;108063;1263;58906;-66
2023/01/06 05:33:48;;;;;;;3.90;3.20;;;;;;;4.87;89.59;97499.27;108074;1264;58878;-65
2023/01/06 05:36:18;;;;;;;4.20;3.10;;;;;;;4.88;90.00;97498.70;108063;1261;70432;-66
2023/01/06 05:38:52;;;;;;;7.20;4.80;;;;;;;4.89;88.89;97507.45;108078;1264;68206;-65
2023/01/06 05:41:22;;;;;;;3.80;2.90;;;;;;;4.90;88.89;97507.04;108072;1260;69768;-65
2023/01/06 05:43:50;;;;;;;4.50;3.00;;;;;;;4.92;88.63;97509.91;108061;1264;58944;-65
2023/01/06 05:46:20;;;;;;;4.90;3.70;;;;;;;4.92;88.66;97509.34;108071;1264;58925;-65
2023/01/06 05:48:49;;;;;;;3.40;3.10;;;;;;;4.92;88.50;97517.66;108091;1264;71186;-66
2023/01/06 05:51:19;;;;;;;3.70;3.10;;;;;;;4.92;89.11;97513.01;108105;1261;68237;-66
2023/01/06 05:53:48;;;;;;;3.70;2.80;;;;;;;4.90;89.05;97516.00;108080;1264;68503;-66
2023/01/06 05:56:19;;;;;;;5.50;2.80;;;;;;;4.91;87.47;97517.89;108075;1264;58954;-66
2023/01/06 05:58:51;;;;;;;3.70;2.60;;;;;;;4.89;87.48;97522.13;108117;1264;58892;-66
2023/01/06 06:01:23;;;;;;;5.30;2.70;;;;;;;4.88;88.04;97525.10;108129;1261;71211;-66
2023/01/06 06:03:53;;;;;;;3.30;2.50;;;;;;;4.86;87.80;97530.90;108105;1264;68364;-65
2023/01/06 06:06:25;;;;;;;4.30;2.90;;;;;;;4.84;87.36;97540.98;108086;1260;68554;-66
2023/01/06 06:08:54;;;;;;;4.40;2.60;;;;;;;4.82;85.98;97543.00;108098;1264;58888;-66
2023/01/06 06:11:22;;;;;;;3.40;2.70;;;;;;;4.82;86.59;97544.04;108061;1264;58912;-65
2023/01/06 06:13:54;;;;;;;3.10;2.30;;;;;;;4.81;85.77;97544.43;108094;1264;69827;-66
2023/01/06 06:16:26;;;;;;;5.30;4.80;;;;;;;4.80;86.48;97545.52;108067;1264;68254;-66
2023/01/06 06:18:58;;;;;;;4.30;2.40;;;;;;;4.78;85.04;97543.37;108087;1264;69381;-66
2023/01/06 06:21:29;;;;;;;2.70;2.40;;;;;;;4.77;85.51;97553.06;108078;1264;58943;-65
2023/01/06 06:23:59;;;;;;;3.00;2.30;;;;;;;4.77;85.04;97553.79;108073;1264;58895;-65
2023/01/06 06:26:27;;;;;;;3.10;2.30;;;;;;;4.76;83.49;97559.17;108076;1264;71194;-65
2023/01/06 06:28:56;;;;;;;3.40;2.10;;;;;;;4.74;82.97;97563.55;108075;1259;69790;-65
2023/01/06 06:31:28;;;;;;;3.00;2.00;;;;;;;4.73;81.91;97568.62;108069;1264;69698;-66
2023/01/06 06:33:59;;;;;;;2.70;1.90;;;;;;;4.76;83.11;97582.48;108084;1264;58957;-65
2023/01/06 06:36:29;;;;;;;2.00;1.70;;;;;;;4.74;81.14;97586.87;108084;1260;58896;-66
2023/01/06 06:38:58;;;;;;;2.90;2.00;;;;;;;4.75;81.67;97593.23;108082;1260;70485;-66
2023/01/06 06:41:27;;;;;;;2.30;1.80;;;;;;;4.73;81.01;97595.06;108083;1264;68801;-66
2023/01/06 06:43:55;;;;;;;4.10;2.00;;;;;;;4.70;80.86;97592.61;108105;1264;69237;-65
2023/01/06 06:46:24;;;;;;;3.50;1.80;;;;;;;4.66;79.63;97592.27;108083;1264;58971;-66
2023/01/06 06:48:53;;;;;;;2.90;2.00;;;;;;;4.67;80.11;97594.80;108096;1264;58882;-66
2023/01/06 06:51:23;;;;;;;2.40;1.90;;;;;;;4.63;79.59;97596.55;108082;1264;70143;-65
2023/01/06 06:53:52;;;;;;;4.00;2.00;;;;;;;4.65;80.34;97593.37;108082;1264;68216;-65
2023/01/06 06:56:22;;;;;;;2.80;1.90;;;;;;;4.63;80.49;97595.88;108090;1264;69962;-65
2023/01/06 06:58:51;;;;;;;2.90;1.90;;;;;;;4.59;79.32;97597.75;108055;1259;58962;-65
2023/01/06 07:01:21;;;;;;;3.00;1.90;;;;;;;4.61;80.19;97603.88;108118;1260;59260;-65
2023/01/06 07:03:50;;;;;;;2.20;1.60;;;;;;;4.57;79.59;97607.84;108084;1264;70413;-69
2023/01/06 07:06:21;;;;;;;3.20;1.90;;;;;;;4.56;79.26;97610.66;108073;1264;68686;-64
2023/01/06 07:08:50;;;;;;;2.00;1.80;;;;;;;4.56;79.45;97617.71;108099;1264;69119;-65
2023/01/06 07:11:20;;;;;;;3.30;2.40;;;;;;;4.56;79.53;97622.05;108059;1264;58887;-65
2023/01/06 07:13:48;;;;;;;2.40;2.20;;;;;;;4.58;80.23;97625.24;108126;1260;58884;-65
2023/01/06 07:16:21;;;;;;;3.40;1.80;;;;;;;4.59;79.01;97626.77;108125;1264;70055;-65
2023/01/06 07:18:50;;;;;;;3.80;2.40;;;;;;;4.60;79.15;97630.65;108134;1261;69656;-65
2023/01/06 07:21:19;;;;;;;3.30;2.20;;;;;;;4.65;79.59;97635.64;108091;1260;68744;-65
2023/01/06 07:23:47;;;;;;;3.50;2.30;;;;;;;4.65;77.83;97640.31;108089;1264;58944;-65
2023/01/06 07:26:16;;;;;;;3.10;2.10;;;;;;;4.70;78.24;97648.17;108122;1264;58911;-65
2023/01/06 07:28:45;;;;;;;3.40;2.10;;;;;;;4.78;78.13;97652.46;108121;1264;71550;-65
2023/01/06 07:31:14;;;;;;;3.50;2.80;;;;;;;4.85;77.55;97653.21;108144;1264;69011;-65
2023/01/06 07:33:43;;;;;;;2.70;1.80;;;;;;;4.87;77.22;97661.42;108099;1264;70382;-66
2023/01/06 07:36:12;;;;;;;2.50;2.00;;;;;;;4.91;76.91;97659.86;108071;1264;58844;-65
2023/01/06 07:38:41;;;;;;;2.80;1.80;;;;;;;4.96;76.19;97668.42;108093;1264;58816;-65
2023/01/06 07:41:09;;;;;;;2.60;1.80;;;;;;;5.06;77.08;97673.30;108106;1264;69764;-65
2023/01/06 07:43:38;;;;;;;2.50;1.80;;;;;;;5.34;75.90;97688.56;108081;1264;68660;-65
2023/01/06 07:46:08;;;;;;;2.40;1.60;;;;;;;5.69;74.05;97687.08;108078;1266;69208;-66
2023/01/06 07:48:37;;;;;;;3.00;2.10;;;;;;;6.21;72.28;97688.14;108052;1264;58907;-66
2023/01/06 07:51:05;;;;;;;1.70;1.60;;;;;;;6.62;71.89;97689.48;108099;1264;58909;-66
2023/01/06 07:53:34;;;;;;;2.50;1.50;;;;;;;6.48;69.61;97686.60;108129;1264;70397;-67
2023/01/06 07:56:04;;;;;;;2.10;1.60;;;;;;;6.39;69.93;97693.11;108058;1260;68500;-66
2023/01/06 07:58:32;;;;;;;1.90;1.40;;;;;;;6.10;69.71;97700.14;108116;1264;68118;-66
2023/01/06 08:01:05;;;;;;;2.10;1.60;;;;;;;5.75;70.08;97704.77;108095;1264;58907;-67
2023/01/06 08:03:35;;;;;;;1.90;1.40;;;;;;;5.69;70.88;97713.90;108044;1264;58956;-67
2023/01/06 08:06:11;;;;;;;3.10;1.90;;;;;;;5.67;70.57;97718.30;108149;1264;71136;-64
2023/01/06 08:08:40;;;;;;;2.20;1.50;;;;;;;5.89;71.82;97726.04;108329;1264;69079;-67
2023/01/06 08:11:11;;;;;;;2.10;1.70;;;;;;;6.10;71.64;97722.77;108116;1264;69231;-66
2023/01/06 08:13:40;;;;;;;2.10;1.60;;;;;;;6.25;70.25;97722.88;108124;1264;58967;-67
2023/01/06 08:16:10;;;;;;;2.70;1.60;;;;;;;6.46;69.58;97723.39;108092;1264;58957;-65
2023/01/06 08:18:39;;;;;;;2.20;1.70;;;;;;;6.55;68.16;97719.48;108089;1260;69795;-67
2023/01/06 08:21:10;;;;;;;3.80;1.60;;;;;;;6.57;68.36;97726.96;108097;1264;69707;-67
2023/01/06 08:23:38;;;;;;;2.50;1.40;;;;;;;6.25;67.87;97732.08;108123;1264;69115;-67
2023/01/06 08:26:10;;;;;;;2.60;1.50;;;;;;;6.19;67.78;97731.67;108101;1264;58891;-66
2023/01/06 08:28:40;;;;;;;2.70;1.70;;;;;;;6.05;68.01;97733.92;108069;1263;58933;-66
2023/01/06 08:31:11;;;;;;;2.80;1.60;;;;;;;5.99;68.14;97739.08;108035;1264;71254;-66
2023/01/06 08:33:40;;;;;;;2.30;1.80;;;;;;;5.98;68.22;97742.05;108084;1261;69256;-66
2023/01/06 08:36:12;;;;;;;2.40;1.60;;;;;;;6.00;68.19;97747.71;108108;1264;69071;-68
2023/01/06 08:38:42;;;;;;;2.20;1.50;;;;;;;5.88;67.82;97750.66;108031;1264;58910;-66
2023/01/06 08:41:11;;;;;;;3.30;1.90;;;;;;;5.87;68.22;97751.39;108068;1259;58886;-65
2023/01/06 08:43:42;;;;;;;2.80;1.80;;;;;;;5.74;67.15;97749.95;108111;1264;69588;-66
2023/01/06 08:46:16;;;;;;;2.00;1.50;;;;;;;5.72;68.56;97757.32;108044;1264;68953;-66
2023/01/06 08:48:46;;;;;;;2.70;1.60;;;;;;;5.68;68.29;97755.05;108069;1266;69410;-66
2023/01/06 08:51:17;;;;;;;;;;;;;;;5.68;69.13;97753.55;108050;1263;58864;-66
2023/01/06 08:53:46;;;;;;;2.00;1.50;;;;;;;5.63;68.72;97759.46;108096;1264;58906;-66
2023/01/06 08:56:19;;;;;;;1.90;1.40;;;;;;;5.52;68.17;97758.24;108076;1264;68971;-67
2023/01/06 08:58:57;;;;;;;2.10;1.50;;;;;;;5.54;69.02;97759.36;108108;1264;69379;-66
2023/01/06 09:01:32;;;;;;;1.50;1.30;;;;;;;5.33;68.07;97762.40;108061;1264;69753;-66
2023/01/06 09:04:04;;;;;;;2.20;1.60;;;;;;;5.27;68.70;97757.69;108064;1264;58928;-64
2023/01/06 09:06:33;;;;;;;2.40;1.40;;;;;;;5.20;68.67;97760.60;108099;1264;58972;-64
2023/01/06 09:09:04;;;;;;;2.50;1.70;;;;;;;5.14;68.82;97764.02;108096;1264;70426;-65
2023/01/06 09:11:33;;;;;;;2.00;1.50;;;;;;;5.09;68.81;97763.14;108127;1264;69043;-64
2023/01/06 09:14:02;;;;;;;2.10;1.50;;;;;;;5.09;68.80;97761.44;108102;1259;69125;-64
2023/01/06 09:16:30;;;;;;;2.10;1.80;;;;;;;5.07;69.15;97761.36;108094;1264;58914;-64
2023/01/06 09:18:59;;;;;;;2.80;1.50;;;;;;;5.07;68.64;97761.34;108102;1264;58878;-64
2023/01/06 09:21:27;;;;;;;2.40;1.50;;;;;;;5.11;68.83;97762.04;108120;1261;70580;-64
2023/01/06 09:23:56;;;;;;;2.20;1.60;;;;;;;5.22;69.14;97763.62;108085;1264;68654;-64
2023/01/06 09:26:25;;;;;;;1.40;1.30;;;;;;;5.34;68.77;97763.39;108103;1264;68704;-64
2023/01/06 09:28:54;;;;;;;1.50;1.30;;;;;;;5.47;68.31;97762.48;108050;1264;58964;-68
2023/01/06 09:31:22;;;;;;;2.40;1.60;;;;;;;5.78;68.19;97766.35;108110;1264;58859;-64
2023/01/06 09:33:51;;;;;;;3.20;1.60;;;;;;;6.01;66.88;97764.77;108125;1259;71171;-63
2023/01/06 09:36:21;;;;;;;2.10;1.50;;;;;;;6.06;65.48;97768.47;108123;1264;67440;-65
2023/01/06 09:38:50;;;;;;;2.30;1.50;;;;;;;6.21;65.50;97765.89;108105;1264;69233;-65
2023/01/06 09:41:50;;;;;;;2.60;1.70;;;;;;;6.35;66.29;97771.77;108119;1269;58967;-65
2023/01/06 09:44:26;;;;;;;2.70;1.50;;;;;;;6.33;64.48;97774.77;108107;1264;58899;-65
2023/01/06 09:46:57;;;;;;;2.00;1.50;;;;;;;6.27;64.12;97776.79;108059;1264;71178;-65
2023/01/06 09:49:29;;;;;;;2.40;1.60;;;;;;;6.29;63.80;97787.58;108069;1264;68138;-65
2023/01/06 09:52:06;;;;;;;1.90;1.50;;;;;;;6.28;63.46;97787.34;108063;1264;68416;-65
2023/01/06 09:54:43;;;;;;;1.60;1.20;;;;;;;6.95;62.76;97786.85;108120;1264;58979;-65
2023/01/06 09:57:20;;;;;;;2.50;1.60;;;;;;;8.06;59.52;97792.58;108069;1265;58960;-63
2023/01/06 09:59:55;;;;;;;1.90;1.40;;;;;;;9.06;57.04;97782.20;108121;1264;70346;-64
2023/01/06 10:02:36;;;;;;;2.00;1.30;;;;;;;10.15;56.41;97782.87;108090;1264;68223;-64
2023/01/06 10:05:27;;;;;;;2.60;1.20;;;;;;;10.75;52.19;97777.54;108064;1264;69883;-63
2023/01/06 10:08:20;;;;;;;1.90;1.30;;;;;;;11.59;49.71;97776.36;108103;1264;58891;-62
2023/01/06 10:11:13;;;;;;;2.30;1.10;;;;;;;12.23;47.95;97781.41;108086;1264;58887;-64
2023/01/06 10:13:44;;;;;;;2.20;1.60;;;;;;;12.55;45.85;97767.82;108072;1264;70563;-62
2023/01/06 10:16:42;;;;;;;1.50;1.20;;;;;;;13.25;46.70;97771.42;108075;1261;69793;-62
2023/01/06 10:19:29;;;;;;;1.60;1.10;;;;;;;13.89;45.08;97774.75;108076;1264;69155;-62
2023/01/06 10:22:10;;;;;;;1.30;0.90;;;;;;;13.88;45.64;97773.85;108100;1269;58938;-63
2023/01/06 10:24:45;;;;;;;1.80;1.20;;;;;;;11.37;46.20;97780.23;108107;1264;58946;-64
2023/01/06 10:27:13;;;;;;;3.20;1.50;;;;;;;10.59;48.54;97781.18;108075;1264;70539;-64
2023/01/06 10:29:42;;;;;;;1.70;1.30;;;;;;;10.18;50.22;97792.23;108060;1261;69206;-64
2023/01/06 10:32:15;;;;;;;1.40;1.30;;;;;;;9.52;51.34;97792.83;108048;1264;69279;-61
2023/01/06 10:34:46;;;;;;;3.60;2.00;;;;;;;8.65;53.42;97794.79;108089;1264;58916;-63
2023/01/06 10:37:31;;;;;;;2.30;1.70;;;;;;;8.71;53.68;97795.86;108096;1266;58874;-65
2023/01/06 10:40:14;;;;;;;3.50;1.40;;;;;;;8.40;54.68;97797.64;108093;1264;71042;-64
2023/01/06 10:43:02;;;;;;;1.80;1.30;;;;;;;7.98;55.56;97790.29;108107;1264;69768;-65
2023/01/06 10:45:47;;;;;;;3.30;2.60;;;;;;;7.90;56.07;97789.16;108066;1264;68289;-66
2023/01/06 10:48:20;;;;;;;10.20;6.90;;;;;;;7.80;56.78;97787.11;108035;1264;58990;-65
2023/01/06 10:50:49;;;;;;;2.30;2.10;;;;;;;7.51;57.59;97781.97;108099;1264;58953;-65
2023/01/06 10:53:18;;;;;;;1.60;1.40;;;;;;;6.95;58.29;97771.41;108113;1264;71071;-65
2023/01/06 10:55:56;;;;;;;2.30;1.80;;;;;;;6.78;59.52;97767.83;108075;1264;68497;-64
2023/01/06 10:58:31;;;;;;;2.10;1.70;;;;;;;6.85;59.42;97774.75;108106;1264;69742;-66
2023/01/06 11:01:16;;;;;;;3.30;2.10;;;;;;;6.94;59.66;97779.79;108089;1269;58945;-64
2023/01/06 11:03:46;;;;;;;3.40;3.00;;;;;;;7.00;59.68;97778.43;108268;1264;58949;-64
2023/01/06 11:06:26;;;;;;;1.70;1.30;;;;;;;7.12;59.57;97776.25;108100;1259;70627;-63
2023/01/06 11:08:55;;;;;;;3.40;1.60;;;;;;;7.13;59.33;97779.83;108084;1264;68999;-62
2023/01/06 11:11:24;;;;;;;2.70;1.80;;;;;;;7.17;59.35;97780.14;108037;1264;69599;-63
2023/01/06 11:14:00;;;;;;;2.30;1.50;;;;;;;7.10;59.03;97776.70;108049;1266;58946;-63
2023/01/06 11:16:31;;;;;;;6.50;3.60;;;;;;;7.18;58.81;97779.23;108118;1264;58853;-62
2023/01/06 11:19:03;;;;;;;7.10;4.00;;;;;;;7.10;58.60;97779.29;108107;1264;69417;-63
2023/01/06 11:21:43;;;;;;;5.00;3.20;;;;;;;7.21;59.48;97776.50;108124;1264;69657;-64
2023/01/06 11:24:23;;;;;;;4.90;2.90;;;;;;;7.28;59.05;97772.63;108107;1264;69292;-64
2023/01/06 11:26:55;;;;;;;9.20;4.00;;;;;;;7.49;58.53;97775.11;108079;1264;58884;-64
2023/01/06 11:29:28;;;;;;;3.00;2.20;;;;;;;7.83;57.14;97781.05;108123;1264;58903;-63
2023/01/06 11:32:10;;;;;;;4.80;3.00;;;;;;;8.18;57.17;97783.74;108112;1257;71308;-63
2023/01/06 11:34:58;;;;;;;3.00;1.90;;;;;;;8.17;55.34;97780.19;108100;1259;68056;-63
2023/01/06 11:37:37;;;;;;;4.30;2.20;;;;;;;8.36;55.52;97781.36;108084;1264;69799;-64
2023/01/06 11:40:24;;;;;;;3.00;1.70;;;;;;;8.72;54.61;97781.02;108116;1259;58900;-64
2023/01/06 11:42:56;;;;;;;9.00;4.30;;;;;;;9.08;54.08;97775.52;108119;1264;58964;-64
2023/01/06 11:45:28;;;;;;;2.70;1.90;;;;;;;10.08;53.78;97768.85;108095;1265;70468;-64
2023/01/06 11:47:57;;;;;;;11.30;5.50;;;;;;;10.90;50.38;97764.15;108056;1264;68292;-64
2023/01/06 11:50:26;;;;;;;4.00;1.90;;;;;;;11.68;50.01;97764.61;108080;1264;69252;-64
2023/01/06 11:53:00;;;;;;;1.90;1.50;;;;;;;12.36;46.68;97764.02;108106;1264;58951;-63
2023/01/06 11:55:29;;;;;;;1.50;1.10;;;;;;;13.09;45.03;97757.42;108101;1264;58813;-65
2023/01/06 11:58:20;;;;;;;3.20;1.90;;;;;;;13.93;44.27;97756.90;108115;1264;70541;-66
2023/01/06 12:01:14;;;;;;;3.00;1.80;;;;;;;14.53;42.70;97752.58;108107;1260;68640;-65
2023/01/06 12:03:45;;;;;;;6.40;3.80;;;;;;;14.95;43.42;97750.38;108094;1264;69316;-64